createdAt,value
2022-09-29T00:01:02.409Z,5.63
2022-09-29T00:03:30.880Z,6.03
2022-09-29T00:05:59.242Z,5.97
2022-09-29T00:08:28.059Z,5.57
2022-09-29T00:10:56.566Z,5.67
2022-09-29T00:13:25.202Z,4.87
2022-09-29T00:15:57.311Z,4.80
2022-09-29T00:18:27.097Z,4.80
2022-09-29T00:20:58.971Z,5.00
2022-09-29T00:23:27.764Z,4.90
2022-09-29T00:26:02.992Z,4.97
2022-09-29T00:28:31.262Z,4.80
2022-09-29T00:31:00.466Z,3.90
2022-09-29T00:33:31.954Z,4.63
2022-09-29T00:36:03.735Z,4.30
2022-09-29T00:38:32.195Z,4.33
2022-09-29T00:41:00.653Z,4.23
2022-09-29T00:43:44.843Z,4.20
2022-09-29T00:46:13.364Z,3.80
2022-09-29T00:48:43.226Z,4.03
2022-09-29T00:51:11.506Z,4.20
2022-09-29T00:53:39.849Z,4.30
2022-09-29T00:56:09.057Z,4.10
2022-09-29T00:58:39.641Z,4.77
2022-09-29T01:01:08.363Z,4.57
2022-09-29T01:03:37.716Z,5.17
2022-09-29T01:06:10.412Z,4.77
2022-09-29T01:08:39.518Z,5.07
2022-09-29T01:11:08.044Z,4.70
2022-09-29T01:13:36.532Z,4.90
2022-09-29T01:16:05.152Z,4.60
2022-09-29T01:18:33.529Z,4.80
2022-09-29T01:21:04.297Z,4.80
2022-09-29T01:23:56.947Z,4.97
2022-09-29T01:26:58.564Z,5.10
2022-09-29T01:29:37.844Z,5.17
2022-09-29T01:32:08.814Z,4.93
2022-09-29T01:34:39.031Z,5.30
2022-09-29T01:37:08.339Z,5.20
2022-09-29T01:39:37.357Z,5.33
2022-09-29T01:42:06.736Z,5.70
2022-09-29T01:44:35.774Z,6.43
2022-09-29T01:47:05.199Z,5.53
2022-09-29T01:49:36.057Z,5.90
2022-09-29T01:52:05.497Z,5.77
2022-09-29T01:54:35.490Z,5.60
2022-09-29T01:57:04.334Z,6.00
2022-09-29T01:59:35.836Z,5.73
2022-09-29T02:02:04.839Z,5.60
2022-09-29T02:04:35.324Z,6.40
2022-09-29T02:07:11.497Z,5.97
2022-09-29T02:09:41.417Z,6.37
2022-09-29T02:12:09.711Z,6.03
2022-09-29T02:14:38.938Z,5.80
2022-09-29T02:17:07.963Z,6.40
2022-09-29T02:19:38.500Z,6.60
2022-09-29T02:22:06.853Z,6.40
2022-09-29T02:24:35.170Z,7.00
2022-09-29T02:27:03.533Z,6.80
2022-09-29T02:29:32.012Z,7.03
2022-09-29T02:32:02.871Z,6.97
2022-09-29T02:34:31.292Z,7.40
2022-09-29T02:37:01.945Z,7.70
2022-09-29T02:39:34.295Z,7.97
2022-09-29T02:42:04.086Z,7.60
2022-09-29T02:44:35.485Z,7.77
2022-09-29T02:47:09.442Z,7.87
2022-09-29T02:49:42.785Z,9.00
2022-09-29T02:52:16.197Z,8.53
2022-09-29T02:54:49.041Z,9.03
2022-09-29T02:57:19.577Z,9.43
2022-09-29T02:59:51.722Z,8.83
2022-09-29T03:02:24.732Z,9.33
2022-09-29T03:04:53.703Z,9.30
2022-09-29T03:07:23.459Z,9.03
2022-09-29T03:09:51.899Z,9.93
2022-09-29T03:12:20.617Z,10.53
2022-09-29T03:14:49.071Z,10.50
2022-09-29T03:17:17.376Z,10.30
2022-09-29T03:19:45.681Z,11.20
2022-09-29T03:22:14.162Z,11.63
2022-09-29T03:24:43.958Z,11.33
2022-09-29T03:27:12.426Z,10.80
2022-09-29T03:29:40.772Z,11.00
2022-09-29T03:32:09.105Z,12.33
2022-09-29T03:34:37.410Z,11.70
2022-09-29T03:37:05.778Z,12.03
2022-09-29T03:39:34.101Z,12.27
2022-09-29T03:42:03.929Z,12.80
2022-09-29T03:44:32.212Z,12.07
2022-09-29T03:47:00.811Z,13.00
2022-09-29T03:49:29.911Z,12.97
2022-09-29T03:51:58.223Z,13.53
2022-09-29T03:54:27.649Z,13.40
2022-09-29T03:56:55.981Z,13.67
2022-09-29T03:59:25.665Z,13.10
2022-09-29T04:01:54.051Z,12.80
2022-09-29T04:04:22.457Z,13.50
2022-09-29T04:06:50.746Z,13.07
2022-09-29T04:09:19.104Z,13.17
2022-09-29T04:11:47.698Z,13.03
2022-09-29T04:14:15.992Z,13.77
2022-09-29T04:16:45.780Z,13.90
2022-09-29T04:19:14.126Z,15.10
2022-09-29T04:21:42.430Z,15.27
2022-09-29T04:24:10.864Z,14.60
2022-09-29T04:26:39.987Z,15.53
2022-09-29T04:29:08.314Z,14.37
2022-09-29T04:31:36.826Z,15.23
2022-09-29T04:34:06.787Z,14.60
2022-09-29T04:36:35.105Z,14.77
2022-09-29T04:39:03.439Z,14.93
2022-09-29T04:41:34.774Z,14.60
2022-09-29T04:44:03.678Z,15.53
2022-09-29T04:46:31.962Z,14.70
2022-09-29T04:49:00.407Z,15.03
2022-09-29T04:51:30.228Z,14.60
2022-09-29T04:53:59.573Z,13.53
2022-09-29T04:56:31.383Z,15.53
2022-09-29T04:58:59.894Z,14.17
2022-09-29T05:01:28.212Z,14.67
2022-09-29T05:03:56.497Z,14.23
2022-09-29T05:06:24.809Z,14.17
2022-09-29T05:08:54.516Z,14.40
2022-09-29T05:11:22.791Z,14.27
2022-09-29T05:13:51.368Z,15.60
2022-09-29T05:16:19.790Z,15.10
2022-09-29T05:18:48.112Z,15.07
2022-09-29T05:21:27.549Z,15.97
2022-09-29T05:23:57.547Z,16.50
2022-09-29T05:26:25.888Z,16.47
2022-09-29T05:28:54.259Z,18.33
2022-09-29T05:31:22.636Z,18.27
2022-09-29T05:33:51.002Z,18.30
2022-09-29T05:36:19.308Z,18.80
2022-09-29T05:38:47.589Z,18.40
2022-09-29T05:41:22.618Z,18.73
2022-09-29T05:43:51.003Z,18.97
2022-09-29T05:46:19.498Z,19.40
2022-09-29T05:48:47.952Z,19.03
2022-09-29T05:51:21.847Z,19.80
2022-09-29T05:53:51.133Z,19.30
2022-09-29T05:56:21.201Z,20.03
2022-09-29T05:58:49.617Z,20.10
2022-09-29T06:01:18.756Z,19.43
2022-09-29T06:03:47.234Z,20.20
2022-09-29T06:06:16.117Z,19.93
2022-09-29T06:08:44.516Z,21.27
2022-09-29T06:11:13.469Z,20.10
2022-09-29T06:13:43.575Z,20.13
2022-09-29T06:16:12.175Z,21.90
2022-09-29T06:18:40.666Z,23.67
2022-09-29T06:21:09.429Z,22.23
2022-09-29T06:23:37.766Z,22.47
2022-09-29T06:26:06.891Z,20.70
2022-09-29T06:28:35.211Z,20.57
2022-09-29T06:31:06.054Z,21.47
2022-09-29T06:33:34.682Z,20.87
2022-09-29T06:36:21.720Z,20.50
2022-09-29T06:38:50.014Z,22.10
2022-09-29T06:41:25.010Z,20.20
2022-09-29T06:43:53.357Z,20.50
2022-09-29T06:46:23.163Z,21.27
2022-09-29T06:48:51.581Z,20.73
2022-09-29T06:51:22.613Z,20.97
2022-09-29T06:53:52.457Z,20.90
2022-09-29T06:56:22.268Z,20.03
2022-09-29T06:58:50.763Z,21.87
2022-09-29T07:01:19.161Z,21.07
2022-09-29T07:03:49.426Z,20.17
2022-09-29T07:06:20.079Z,21.03
2022-09-29T07:08:48.939Z,21.87
2022-09-29T07:11:17.595Z,20.87
2022-09-29T07:13:45.861Z,22.23
2022-09-29T07:16:14.745Z,21.30
2022-09-29T07:18:43.360Z,21.60
2022-09-29T07:21:16.045Z,20.80
2022-09-29T07:23:44.417Z,21.27
2022-09-29T07:26:12.694Z,20.83
2022-09-29T07:28:41.022Z,21.97
2022-09-29T07:31:14.814Z,21.67
2022-09-29T07:33:43.869Z,20.07
2022-09-29T07:36:13.557Z,21.00
2022-09-29T07:38:41.911Z,21.17
2022-09-29T07:41:11.062Z,20.90
2022-09-29T07:43:39.454Z,22.53
2022-09-29T07:46:08.061Z,22.03
2022-09-29T07:48:36.687Z,20.57
2022-09-29T07:51:05.588Z,20.50
2022-09-29T07:53:36.238Z,18.37
2022-09-29T07:56:05.323Z,18.97
2022-09-29T07:58:33.663Z,21.43
2022-09-29T08:01:02.060Z,21.10
2022-09-29T08:03:30.462Z,19.40
2022-09-29T08:05:59.209Z,22.43
2022-09-29T08:08:27.621Z,22.90
2022-09-29T08:11:04.075Z,21.93
2022-09-29T08:13:33.056Z,23.37
2022-09-29T08:16:01.506Z,22.27
2022-09-29T08:18:29.859Z,22.37
2022-09-29T08:21:01.259Z,22.23
2022-09-29T08:23:32.853Z,23.87
2022-09-29T08:26:02.603Z,22.63
2022-09-29T08:28:32.934Z,20.70
2022-09-29T08:31:04.458Z,20.67
2022-09-29T08:33:33.332Z,22.23
2022-09-29T08:36:03.611Z,23.67
2022-09-29T08:38:32.784Z,21.97
2022-09-29T08:41:04.407Z,21.93
2022-09-29T08:43:35.557Z,21.73
2022-09-29T08:46:04.487Z,22.10
2022-09-29T08:48:33.818Z,23.67
2022-09-29T08:51:04.077Z,23.87
2022-09-29T08:53:33.461Z,21.67
2022-09-29T08:56:02.455Z,20.57
2022-09-29T08:58:31.142Z,19.70
2022-09-29T09:01:04.136Z,17.83
2022-09-29T09:03:40.351Z,18.43
2022-09-29T09:06:12.991Z,18.60
2022-09-29T09:08:44.426Z,18.33
2022-09-29T09:11:17.469Z,17.87
2022-09-29T09:13:50.729Z,15.90
2022-09-29T09:16:23.762Z,14.13
2022-09-29T09:21:27.145Z,16.37
2022-09-29T09:23:59.871Z,15.70
2022-09-29T09:26:32.159Z,14.53
2022-09-29T09:29:01.660Z,13.87
2022-09-29T09:31:31.918Z,13.73
2022-09-29T09:34:06.168Z,13.90
2022-09-29T09:36:35.476Z,12.50
2022-09-29T09:39:04.580Z,10.60
2022-09-29T09:41:36.018Z,10.23
2022-09-29T09:44:05.323Z,11.83
2022-09-29T09:46:36.506Z,13.43
2022-09-29T09:49:07.499Z,13.80
2022-09-29T09:51:37.887Z,14.13
2022-09-29T09:54:07.009Z,14.23
2022-09-29T09:56:45.760Z,12.40
2022-09-29T09:59:16.590Z,11.33
2022-09-29T10:01:46.683Z,10.33
2022-09-29T10:04:15.063Z,10.50
2022-09-29T10:06:43.312Z,10.83
2022-09-29T10:09:13.644Z,10.23
2022-09-29T10:11:42.710Z,9.40
2022-09-29T10:14:13.340Z,9.13
2022-09-29T10:16:42.933Z,8.40
2022-09-29T10:19:12.852Z,6.87
2022-09-29T10:21:41.972Z,7.73
2022-09-29T10:24:22.548Z,7.30
2022-09-29T10:26:51.214Z,7.93
2022-09-29T10:29:21.166Z,6.33
2022-09-29T10:31:59.287Z,5.63
2022-09-29T10:34:29.053Z,4.80
2022-09-29T10:36:58.281Z,5.03
2022-09-29T10:39:33.724Z,5.50
2022-09-29T10:42:02.432Z,5.50
2022-09-29T10:44:32.750Z,5.40
2022-09-29T10:47:01.488Z,4.37
2022-09-29T10:49:31.100Z,3.97
2022-09-29T10:52:01.649Z,5.03
2022-09-29T10:54:30.931Z,2.87
2022-09-29T10:56:59.405Z,2.07
2022-09-29T10:59:27.676Z,1.97
2022-09-29T11:01:57.086Z,1.70
2022-09-29T11:04:26.686Z,1.77
2022-09-29T11:06:56.366Z,2.80
2022-09-29T11:09:31.469Z,2.70
2022-09-29T11:12:01.553Z,3.20
2022-09-29T11:14:31.978Z,2.93
2022-09-29T11:17:00.786Z,2.40
2022-09-29T11:19:29.393Z,2.53
2022-09-29T11:22:03.171Z,2.43
2022-09-29T11:24:38.248Z,2.40
2022-09-29T11:27:08.409Z,2.00
2022-09-29T11:29:38.264Z,1.87
2022-09-29T11:32:14.806Z,2.10
2022-09-29T11:34:55.587Z,2.20
2022-09-29T11:37:29.469Z,2.07
2022-09-29T11:40:00.018Z,1.90
2022-09-29T11:42:32.450Z,1.80
2022-09-29T11:45:01.078Z,1.70
2022-09-29T11:47:41.446Z,1.83
2022-09-29T11:50:15.416Z,1.90
2022-09-29T11:52:48.587Z,1.87
2022-09-29T11:55:19.483Z,1.90
2022-09-29T11:57:54.970Z,1.80
2022-09-29T12:00:23.378Z,1.87
2022-09-29T12:03:06.625Z,2.10
2022-09-29T12:05:37.375Z,2.40
2022-09-29T12:08:10.369Z,2.00
2022-09-29T12:10:44.039Z,2.40
2022-09-29T12:13:21.016Z,2.50
2022-09-29T12:15:51.978Z,2.60
2022-09-29T12:18:20.468Z,2.13
2022-09-29T12:20:49.186Z,2.17
2022-09-29T12:23:19.662Z,1.90
2022-09-29T12:25:50.765Z,2.00
2022-09-29T12:28:19.852Z,2.37
2022-09-29T12:30:51.333Z,1.87
2022-09-29T12:33:22.046Z,2.00
2022-09-29T12:35:50.888Z,2.40
2022-09-29T12:38:21.812Z,2.10
2022-09-29T12:40:51.681Z,2.00
2022-09-29T12:43:21.587Z,1.90
2022-09-29T12:45:52.748Z,1.80
2022-09-29T12:48:23.783Z,2.27
2022-09-29T12:50:53.027Z,1.30
2022-09-29T12:53:23.481Z,1.30
2022-09-29T12:55:52.396Z,1.70
2022-09-29T12:58:21.500Z,1.50
2022-09-29T13:00:52.463Z,1.90
2022-09-29T13:03:31.625Z,1.73
2022-09-29T13:06:18.217Z,1.80
2022-09-29T13:08:53.010Z,1.33
2022-09-29T13:11:28.295Z,1.33
2022-09-29T13:14:01.785Z,1.30
2022-09-29T13:16:36.255Z,1.40
2022-09-29T13:19:39.401Z,1.43
2022-09-29T13:22:18.772Z,1.53
2022-09-29T13:24:52.384Z,1.70
2022-09-29T13:27:26.377Z,1.70
2022-09-29T13:30:03.149Z,1.83
2022-09-29T13:32:37.555Z,1.73
2022-09-29T13:35:06.253Z,1.50
2022-09-29T13:37:44.956Z,1.30
2022-09-29T13:40:18.946Z,1.40
2022-09-29T13:42:50.730Z,1.30
2022-09-29T13:45:37.361Z,1.27
2022-09-29T13:48:30.424Z,1.70
2022-09-29T13:51:05.107Z,1.53
2022-09-29T13:53:37.698Z,1.50
2022-09-29T13:56:13.755Z,1.47
2022-09-29T13:58:56.424Z,1.70
2022-09-29T14:01:31.752Z,1.50
2022-09-29T14:04:00.157Z,1.30
2022-09-29T14:06:40.593Z,1.13
2022-09-29T14:09:10.091Z,1.20
2022-09-29T14:11:39.987Z,1.40
2022-09-29T14:14:09.178Z,1.20
2022-09-29T14:16:55.664Z,1.20
2022-09-29T14:19:34.623Z,1.40
2022-09-29T14:22:03.228Z,1.40
2022-09-29T14:24:44.593Z,1.20
2022-09-29T14:27:21.340Z,0.90
2022-09-29T14:29:50.358Z,1.10
2022-09-29T14:32:19.970Z,1.20
2022-09-29T14:34:48.459Z,1.00
2022-09-29T14:37:19.191Z,1.10
2022-09-29T14:40:07.807Z,1.30
2022-09-29T14:42:37.526Z,1.00
2022-09-29T14:45:23.622Z,0.97
2022-09-29T14:48:10.740Z,1.10
2022-09-29T14:51:01.446Z,0.90
2022-09-29T14:53:33.485Z,0.90
2022-09-29T14:56:04.346Z,1.17
2022-09-29T14:58:39.221Z,1.03
2022-09-29T15:01:10.425Z,1.00
2022-09-29T15:03:41.792Z,1.30
2022-09-29T15:06:13.049Z,1.20
2022-09-29T15:08:42.771Z,1.10
2022-09-29T15:11:27.478Z,1.00
2022-09-29T15:13:57.371Z,1.10
2022-09-29T15:16:27.882Z,0.90
2022-09-29T15:19:00.492Z,1.07
2022-09-29T15:21:34.439Z,1.47
2022-09-29T15:24:15.851Z,1.40
2022-09-29T15:26:44.750Z,0.93
2022-09-29T15:29:17.287Z,1.17
2022-09-29T15:31:46.619Z,1.30
2022-09-29T15:34:16.199Z,1.20
2022-09-29T15:36:45.013Z,1.13
2022-09-29T15:39:15.254Z,0.90
2022-09-29T15:41:45.129Z,0.80
2022-09-29T15:44:18.081Z,0.77
2022-09-29T15:46:49.055Z,0.90
2022-09-29T15:49:18.498Z,0.93
2022-09-29T15:51:56.986Z,0.97
2022-09-29T15:54:25.686Z,1.00
2022-09-29T15:57:11.582Z,0.90
2022-09-29T15:59:42.772Z,1.20
2022-09-29T16:02:16.765Z,0.90
2022-09-29T16:04:45.522Z,0.80
2022-09-29T16:07:19.221Z,0.80
2022-09-29T16:09:47.605Z,0.90
2022-09-29T16:12:17.472Z,0.60
2022-09-29T16:14:49.476Z,0.70
2022-09-29T16:17:18.516Z,0.60
2022-09-29T16:19:47.989Z,0.60
2022-09-29T16:22:18.962Z,0.80
2022-09-29T16:24:53.018Z,0.70
2022-09-29T16:27:36.240Z,0.80
2022-09-29T16:30:19.242Z,0.73
2022-09-29T16:32:47.556Z,0.80
2022-09-29T16:35:34.329Z,0.90
2022-09-29T16:38:03.133Z,1.10
2022-09-29T16:40:33.076Z,1.13
2022-09-29T16:43:01.694Z,1.30
2022-09-29T16:45:32.829Z,0.60
2022-09-29T16:48:01.177Z,0.90
2022-09-29T16:50:29.658Z,1.00
2022-09-29T16:52:58.002Z,0.80
2022-09-29T16:55:27.810Z,0.70
2022-09-29T16:57:56.708Z,1.00
2022-09-29T17:00:25.095Z,0.80
2022-09-29T17:02:55.271Z,0.80
2022-09-29T17:05:23.654Z,0.80
2022-09-29T17:07:52.166Z,1.00
2022-09-29T17:10:21.277Z,0.97
2022-09-29T17:12:49.654Z,1.00
2022-09-29T17:15:18.303Z,1.00
2022-09-29T17:17:50.623Z,1.33
2022-09-29T17:20:21.258Z,1.70
2022-09-29T17:22:51.616Z,2.20
2022-09-29T17:25:19.914Z,2.27
2022-09-29T17:28:05.882Z,3.20
2022-09-29T17:30:34.243Z,3.13
2022-09-29T17:33:03.617Z,3.40
2022-09-29T17:35:33.847Z,3.70
2022-09-29T17:38:07.550Z,3.17
2022-09-29T17:40:36.401Z,3.27
2022-09-29T17:43:04.987Z,2.73
2022-09-29T17:45:34.740Z,2.20
2022-09-29T17:48:05.104Z,2.17
2022-09-29T17:50:36.593Z,2.33
2022-09-29T17:53:06.529Z,2.00
2022-09-29T17:55:35.155Z,1.63
2022-09-29T17:58:03.881Z,1.80
2022-09-29T18:00:33.519Z,1.77
2022-09-29T18:03:01.891Z,1.83
2022-09-29T18:05:33.472Z,1.80
2022-09-29T18:08:03.762Z,1.70
2022-09-29T18:10:33.707Z,1.77
2022-09-29T18:13:07.017Z,2.43
2022-09-29T18:15:36.855Z,2.20
2022-09-29T18:18:24.910Z,2.00
2022-09-29T18:21:12.473Z,2.10
2022-09-29T18:23:54.225Z,2.00
2022-09-29T18:26:23.996Z,2.07
2022-09-29T18:28:55.122Z,1.97
2022-09-29T18:31:26.623Z,2.10
2022-09-29T18:33:57.324Z,2.20
2022-09-29T18:36:37.718Z,2.60
2022-09-29T18:39:10.139Z,2.37
2022-09-29T18:41:40.201Z,2.33
2022-09-29T18:44:20.122Z,2.30
2022-09-29T18:46:49.256Z,2.43
2022-09-29T18:49:17.636Z,2.63
2022-09-29T18:51:46.701Z,2.60
2022-09-29T18:54:17.829Z,2.50
2022-09-29T18:56:46.174Z,2.60
2022-09-29T18:59:14.803Z,3.00
2022-09-29T19:01:43.270Z,2.70
2022-09-29T19:04:11.715Z,2.67
2022-09-29T19:06:40.028Z,3.17
2022-09-29T19:09:08.962Z,2.70
2022-09-29T19:11:39.638Z,2.90
2022-09-29T19:14:08.593Z,2.70
2022-09-29T19:16:37.169Z,3.10
2022-09-29T19:19:07.860Z,3.03
2022-09-29T19:21:39.563Z,2.63
2022-09-29T19:24:07.831Z,2.90
2022-09-29T19:26:49.168Z,3.00
2022-09-29T19:29:20.388Z,3.47
2022-09-29T19:31:49.611Z,3.23
2022-09-29T19:34:17.908Z,3.57
2022-09-29T19:36:48.035Z,4.00
2022-09-29T19:39:16.492Z,3.63
2022-09-29T19:41:47.540Z,3.63
2022-09-29T19:44:15.978Z,3.13
2022-09-29T19:46:45.990Z,3.20
2022-09-29T19:49:15.707Z,3.60
2022-09-29T19:51:55.206Z,4.17
2022-09-29T19:54:25.018Z,4.10
2022-09-29T19:56:54.056Z,3.70
2022-09-29T19:59:23.163Z,3.40
2022-09-29T20:01:53.829Z,3.17
2022-09-29T20:04:29.831Z,3.77
2022-09-29T20:07:01.388Z,3.40
2022-09-29T20:09:31.716Z,3.40
2022-09-29T20:12:00.134Z,3.30
2022-09-29T20:14:28.837Z,3.17
2022-09-29T20:17:01.248Z,3.10
2022-09-29T20:19:31.758Z,3.40
2022-09-29T20:22:04.261Z,4.13
2022-09-29T20:24:33.377Z,4.10
2022-09-29T20:27:02.600Z,4.53
2022-09-29T20:29:31.304Z,4.37
2022-09-29T20:32:00.943Z,5.10
2022-09-29T20:34:29.277Z,5.43
2022-09-29T20:36:57.566Z,6.00
2022-09-29T20:39:26.140Z,6.50
2022-09-29T20:41:55.095Z,5.53
2022-09-29T20:44:25.706Z,5.63
2022-09-29T20:46:54.346Z,6.60
2022-09-29T20:49:24.089Z,6.73
2022-09-29T20:51:52.721Z,6.10
2022-09-29T20:54:21.374Z,6.60
2022-09-29T20:56:51.003Z,6.10
2022-09-29T20:59:20.137Z,6.73
2022-09-29T21:01:48.962Z,6.70
2022-09-29T21:04:18.138Z,7.00
2022-09-29T21:06:48.492Z,6.27
2022-09-29T21:09:17.177Z,6.60
2022-09-29T21:11:47.109Z,6.50
2022-09-29T21:14:16.355Z,6.50
2022-09-29T21:16:45.116Z,6.07
2022-09-29T21:19:14.417Z,7.33
2022-09-29T21:21:43.893Z,7.73
2022-09-29T21:24:14.584Z,8.93
2022-09-29T21:26:43.051Z,9.20
2022-09-29T21:29:15.540Z,9.77
2022-09-29T21:31:43.998Z,10.17
2022-09-29T21:34:12.392Z,8.93
2022-09-29T21:36:40.755Z,8.97
2022-09-29T21:39:09.848Z,9.50
2022-09-29T21:41:40.860Z,8.07
2022-09-29T21:44:14.021Z,9.00
2022-09-29T21:46:42.393Z,8.03
2022-09-29T21:49:11.179Z,8.70
2022-09-29T21:51:39.945Z,9.67
2022-09-29T21:54:08.733Z,8.67
2022-09-29T21:56:38.967Z,7.60
2022-09-29T21:59:08.694Z,7.57
2022-09-29T22:01:37.087Z,7.23
2022-09-29T22:04:05.510Z,7.30
2022-09-29T22:06:34.547Z,7.47
2022-09-29T22:09:03.739Z,6.97
2022-09-29T22:11:32.498Z,7.37
2022-09-29T22:14:01.239Z,8.00
2022-09-29T22:16:31.381Z,7.73
2022-09-29T22:19:21.951Z,8.07
2022-09-29T22:21:48.611Z,7.97
2022-09-29T22:24:16.957Z,7.33
2022-09-29T22:26:45.355Z,7.60
2022-09-29T22:29:13.632Z,7.13
2022-09-29T22:31:43.439Z,8.03
2022-09-29T22:34:12.086Z,6.80
2022-09-29T22:36:40.412Z,7.30
2022-09-29T22:39:09.219Z,7.50
2022-09-29T22:41:40.006Z,6.90
2022-09-29T22:44:08.659Z,7.30
2022-09-29T22:46:37.021Z,7.13
2022-09-29T22:49:06.773Z,6.60
2022-09-29T22:51:35.131Z,6.50
2022-09-29T22:54:03.482Z,5.90
2022-09-29T22:56:31.989Z,6.37
2022-09-29T22:59:00.946Z,5.73
2022-09-29T23:01:29.370Z,5.43
2022-09-29T23:03:57.787Z,5.23
2022-09-29T23:06:27.519Z,4.77
2022-09-29T23:08:56.301Z,4.80
2022-09-29T23:11:25.300Z,5.33
2022-09-29T23:13:53.952Z,5.57
2022-09-29T23:16:22.307Z,5.47
2022-09-29T23:18:53.909Z,5.47
2022-09-29T23:21:22.276Z,5.60
2022-09-29T23:23:55.759Z,4.97
2022-09-29T23:26:24.230Z,5.27
2022-09-29T23:28:52.624Z,5.00
2022-09-29T23:31:21.132Z,4.90
2022-09-29T23:33:53.111Z,5.13
2022-09-29T23:36:21.593Z,5.20
2022-09-29T23:39:07.690Z,5.20
2022-09-29T23:41:37.372Z,5.20
2022-09-29T23:44:06.344Z,5.43
2022-09-29T23:46:35.941Z,4.67
2022-09-29T23:49:09.317Z,4.70
2022-09-29T23:51:38.220Z,4.43
2022-09-29T23:54:07.136Z,4.63
2022-09-29T23:56:36.860Z,5.13
2022-09-29T23:59:05.426Z,4.63
